createdAt,value
2023-01-18T00:04:42.967Z,1.40
2023-01-18T00:09:41.834Z,1.35
2023-01-18T00:14:43.565Z,1.98
2023-01-18T00:19:44.895Z,1.45
2023-01-18T00:24:56.828Z,1.50
2023-01-18T00:30:01.427Z,2.05
2023-01-18T00:35:07.373Z,1.80
2023-01-18T00:45:10.171Z,1.30
2023-01-18T00:50:30.552Z,1.33
2023-01-18T00:55:29.561Z,1.40
2023-01-18T01:00:35.986Z,2.25
2023-01-18T01:05:52.724Z,1.20
2023-01-18T01:10:58.240Z,1.52
2023-01-18T01:16:30.183Z,1.55
2023-01-18T01:21:47.534Z,1.65
2023-01-18T01:26:46.430Z,1.35
2023-01-18T01:32:02.628Z,1.85
2023-01-18T01:37:06.684Z,1.27
2023-01-18T01:42:06.500Z,2.30
2023-01-18T01:47:10.739Z,1.40
2023-01-18T01:52:27.840Z,1.40
2023-01-18T01:57:32.433Z,2.05
2023-01-18T02:02:36.012Z,2.03
2023-01-18T02:07:37.598Z,1.95
2023-01-18T02:12:43.478Z,1.75
2023-01-18T02:18:01.129Z,2.45
2023-01-18T02:23:27.964Z,1.80
2023-01-18T02:28:36.593Z,1.83
2023-01-18T02:33:44.045Z,2.05
2023-01-18T02:38:49.286Z,2.92
2023-01-18T02:44:16.609Z,1.98
2023-01-18T02:49:23.249Z,1.70
2023-01-18T02:54:24.402Z,2.17
2023-01-18T03:00:31.175Z,2.20
2023-01-18T03:05:46.530Z,1.65
2023-01-18T03:10:57.931Z,2.88
2023-01-18T03:16:08.469Z,2.92
2023-01-18T03:21:17.469Z,1.42
2023-01-18T03:26:24.467Z,2.05
2023-01-18T03:31:56.400Z,1.90
2023-01-18T03:37:01.104Z,2.60
2023-01-18T03:42:14.927Z,2.53
2023-01-18T03:47:16.039Z,2.40
2023-01-18T03:52:21.270Z,1.80
2023-01-18T03:57:28.079Z,2.55
2023-01-18T04:02:29.373Z,2.30
2023-01-18T04:07:28.129Z,1.80
2023-01-18T04:12:27.339Z,2.10
2023-01-18T04:17:29.742Z,2.40
2023-01-18T04:22:32.440Z,2.45
2023-01-18T04:27:49.318Z,2.03
2023-01-18T04:32:50.209Z,2.13
2023-01-18T04:37:53.019Z,1.75
2023-01-18T04:42:57.682Z,2.10
2023-01-18T04:47:58.511Z,1.83
2023-01-18T04:52:57.589Z,2.10
2023-01-18T04:58:03.398Z,1.95
2023-01-18T05:03:12.748Z,2.20
2023-01-18T05:08:11.564Z,1.90
2023-01-18T05:13:12.938Z,2.45
2023-01-18T05:18:27.156Z,2.53
2023-01-18T05:23:26.004Z,2.50
2023-01-18T05:28:30.083Z,2.22
2023-01-18T05:33:32.787Z,2.67
2023-01-18T05:38:35.472Z,2.72
2023-01-18T05:43:36.369Z,2.45
2023-01-18T05:48:39.981Z,2.00
2023-01-18T05:53:42.544Z,2.78
2023-01-18T05:58:44.328Z,2.95
2023-01-18T06:03:48.169Z,2.50
2023-01-18T06:08:55.591Z,2.65
2023-01-18T06:13:59.810Z,2.47
2023-01-18T06:19:00.114Z,2.47
2023-01-18T06:24:01.325Z,4.00
2023-01-18T06:29:00.641Z,3.28
2023-01-18T06:34:11.128Z,2.33
2023-01-18T06:39:21.576Z,2.20
2023-01-18T06:44:20.492Z,2.55
2023-01-18T06:49:21.196Z,2.72
2023-01-18T06:54:25.231Z,1.67
2023-01-18T06:59:24.190Z,2.10
2023-01-18T07:04:25.750Z,2.70
2023-01-18T07:09:24.721Z,2.10
2023-01-18T07:14:23.728Z,2.78
2023-01-18T07:19:22.941Z,2.40
2023-01-18T07:24:25.668Z,2.30
2023-01-18T07:29:24.694Z,3.13
2023-01-18T07:34:23.880Z,2.15
2023-01-18T07:39:26.195Z,1.80
2023-01-18T07:44:28.060Z,3.72
2023-01-18T07:49:29.197Z,2.07
2023-01-18T07:54:33.395Z,2.35
2023-01-18T07:59:33.637Z,3.33
2023-01-18T08:04:34.425Z,2.85
2023-01-18T08:09:35.169Z,2.72
2023-01-18T08:14:48.134Z,2.58
2023-01-18T08:19:49.633Z,2.60
2023-01-18T08:25:02.768Z,3.30
2023-01-18T08:30:19.117Z,3.00
2023-01-18T08:35:18.320Z,2.40
2023-01-18T08:40:22.572Z,2.55
2023-01-18T08:45:25.891Z,2.55
2023-01-18T08:50:25.206Z,2.70
2023-01-18T08:55:44.951Z,1.95
2023-01-18T09:00:44.206Z,3.13
2023-01-18T09:05:53.116Z,3.20
2023-01-18T09:10:55.734Z,2.22
2023-01-18T09:16:00.265Z,2.35
2023-01-18T09:21:07.178Z,3.65
2023-01-18T09:26:08.885Z,3.25
2023-01-18T09:31:17.475Z,1.40
2023-01-18T09:36:17.475Z,3.92
2023-01-18T09:41:30.204Z,2.08
2023-01-18T09:51:35.988Z,3.22
2023-01-18T09:56:43.560Z,2.13
2023-01-18T10:01:42.978Z,1.65
2023-01-18T10:06:49.356Z,2.13
2023-01-18T10:11:56.415Z,2.42
2023-01-18T10:16:58.145Z,2.13
2023-01-18T10:22:04.495Z,2.83
2023-01-18T10:27:24.772Z,2.30
2023-01-18T10:32:27.674Z,1.45
2023-01-18T10:37:33.558Z,2.78
2023-01-18T10:42:42.044Z,2.15
2023-01-18T10:47:40.895Z,1.88
2023-01-18T10:52:40.318Z,4.10
2023-01-18T10:57:50.612Z,2.30
2023-01-18T11:02:50.679Z,2.05
2023-01-18T11:08:10.752Z,1.88
2023-01-18T11:13:28.366Z,2.60
2023-01-18T11:18:27.234Z,2.38
2023-01-18T11:23:36.872Z,2.75
2023-01-18T11:28:40.767Z,1.80
2023-01-18T11:33:49.412Z,2.10
2023-01-18T11:38:54.957Z,2.08
2023-01-18T11:44:05.132Z,1.98
2023-01-18T11:49:19.005Z,2.60
2023-01-18T11:54:28.606Z,2.15
2023-01-18T11:59:56.635Z,2.58
2023-01-18T12:05:31.283Z,1.52
2023-01-18T12:10:50.831Z,1.88
2023-01-18T12:16:10.679Z,2.47
2023-01-18T12:21:13.270Z,2.03
2023-01-18T12:26:36.728Z,1.90
2023-01-18T12:31:52.497Z,1.45
2023-01-18T12:37:13.559Z,1.75
2023-01-18T12:42:17.268Z,2.13
2023-01-18T12:47:32.906Z,1.98
2023-01-18T12:52:36.942Z,1.75
2023-01-18T12:57:36.968Z,1.83
2023-01-18T13:02:41.980Z,2.20
2023-01-18T13:07:46.909Z,1.73
2023-01-18T13:12:46.123Z,3.03
2023-01-18T13:17:54.830Z,2.05
2023-01-18T13:23:17.664Z,1.20
2023-01-18T13:28:19.954Z,2.58
2023-01-18T13:33:24.181Z,1.67
2023-01-18T13:38:40.826Z,1.40
2023-01-18T13:44:26.963Z,1.85
2023-01-18T13:49:38.014Z,3.47
2023-01-18T13:55:01.885Z,5.10
2023-01-18T14:00:02.513Z,2.38
2023-01-18T14:05:10.141Z,3.47
2023-01-18T14:10:25.187Z,3.20
2023-01-18T14:15:30.790Z,2.50
2023-01-18T14:21:12.657Z,2.58
2023-01-18T14:26:12.746Z,3.93
2023-01-18T14:31:17.904Z,3.97
2023-01-18T14:36:25.822Z,2.67
2023-01-18T14:41:24.719Z,2.90
2023-01-18T14:46:27.600Z,3.15
2023-01-18T14:51:29.308Z,2.35
2023-01-18T14:56:29.670Z,2.50
2023-01-18T15:01:32.311Z,4.47
2023-01-18T15:06:41.058Z,2.17
2023-01-18T15:11:44.459Z,3.90
2023-01-18T15:16:44.170Z,1.88
2023-01-18T15:21:44.514Z,2.95
2023-01-18T15:26:47.829Z,3.50
2023-01-18T15:31:52.606Z,3.55
2023-01-18T15:36:53.017Z,3.22
2023-01-18T15:41:53.630Z,2.83
2023-01-18T15:46:52.467Z,4.50
2023-01-18T15:51:57.113Z,3.88
2023-01-18T15:56:59.515Z,3.33
2023-01-18T16:02:14.658Z,3.40
2023-01-18T16:07:38.183Z,3.00
2023-01-18T16:12:37.299Z,3.75
2023-01-18T16:17:36.891Z,5.53
2023-01-18T16:22:37.903Z,4.25
2023-01-18T16:27:48.794Z,3.92
2023-01-18T16:32:50.064Z,4.13
2023-01-18T16:37:52.443Z,3.90
2023-01-18T16:42:59.811Z,4.57
2023-01-18T16:47:59.663Z,4.55
2023-01-18T16:53:00.123Z,4.57
2023-01-18T16:57:58.999Z,4.10
2023-01-18T17:02:58.180Z,3.72
2023-01-18T17:07:57.412Z,3.83
2023-01-18T17:12:59.894Z,3.78
2023-01-18T17:17:59.051Z,4.55
2023-01-18T17:22:59.012Z,4.70
2023-01-18T17:28:00.974Z,4.18
2023-01-18T17:33:01.885Z,2.72
2023-01-18T17:38:06.532Z,7.32
2023-01-18T17:43:16.913Z,4.65
2023-01-18T17:48:16.494Z,4.75
2023-01-18T17:53:15.258Z,4.45
2023-01-18T17:58:15.528Z,4.22
2023-01-18T18:03:14.451Z,5.32
2023-01-18T18:08:13.258Z,5.75
2023-01-18T18:13:12.111Z,4.57
2023-01-18T18:18:22.589Z,7.60
2023-01-18T18:23:21.961Z,6.28
2023-01-18T18:28:21.507Z,5.80
2023-01-18T18:33:22.077Z,5.57
2023-01-18T18:38:26.651Z,8.10
2023-01-18T18:43:25.445Z,6.85
2023-01-18T18:48:25.795Z,6.13
2023-01-18T18:53:36.953Z,6.57
2023-01-18T18:58:37.732Z,5.60
2023-01-18T19:03:37.904Z,6.18
2023-01-18T19:08:36.766Z,5.40
2023-01-18T19:13:35.759Z,12.95
2023-01-18T19:18:34.776Z,7.07
2023-01-18T19:23:35.023Z,6.32
2023-01-18T19:28:33.825Z,6.30
2023-01-18T19:33:35.143Z,5.60
2023-01-18T19:38:38.734Z,6.72
2023-01-18T19:43:44.618Z,5.80
2023-01-18T19:48:43.740Z,5.72
2023-01-18T19:53:44.143Z,5.40
2023-01-18T19:58:42.894Z,7.78
2023-01-18T20:03:41.743Z,6.78
2023-01-18T20:08:40.803Z,10.15
2023-01-18T20:13:44.195Z,6.03
2023-01-18T20:18:42.919Z,7.75
2023-01-18T20:23:42.930Z,5.57
2023-01-18T20:28:43.105Z,6.65
2023-01-18T20:33:42.824Z,7.65
2023-01-18T20:38:42.526Z,7.57
2023-01-18T20:43:42.988Z,6.80
2023-01-18T20:48:42.008Z,6.75
2023-01-18T20:53:41.429Z,6.05
2023-01-18T20:58:42.575Z,6.72
2023-01-18T21:03:45.356Z,7.47
2023-01-18T21:08:44.090Z,8.17
2023-01-18T21:13:44.303Z,6.13
2023-01-18T21:18:43.247Z,5.07
2023-01-18T21:23:45.646Z,5.18
2023-01-18T21:28:55.680Z,6.15
2023-01-18T21:34:00.743Z,7.28
2023-01-18T21:38:59.458Z,5.43
2023-01-18T21:44:16.870Z,5.10
2023-01-18T21:49:43.020Z,5.18
2023-01-18T21:54:46.149Z,6.65
2023-01-18T21:59:46.625Z,5.90
2023-01-18T22:05:01.107Z,6.88
2023-01-18T22:10:05.741Z,4.18
2023-01-18T22:15:07.893Z,6.38
2023-01-18T22:20:08.819Z,5.35
2023-01-18T22:25:09.161Z,6.20
2023-01-18T22:30:10.831Z,6.05
2023-01-18T22:35:10.205Z,6.28
2023-01-18T22:40:11.648Z,5.80
2023-01-18T22:45:12.487Z,5.70
2023-01-18T22:50:12.641Z,4.95
2023-01-18T22:55:11.420Z,6.85
2023-01-18T23:00:13.341Z,4.07
2023-01-18T23:05:12.394Z,4.10
2023-01-18T23:10:11.601Z,5.25
2023-01-18T23:15:31.259Z,5.28
2023-01-18T23:20:30.430Z,5.72
2023-01-18T23:25:29.555Z,5.00
2023-01-18T23:30:29.700Z,6.50
2023-01-18T23:35:28.437Z,4.75
2023-01-18T23:40:44.461Z,6.60
2023-01-18T23:46:03.341Z,5.35
2023-01-18T23:51:20.330Z,6.10
2023-01-18T23:56:19.089Z,4.28
